createdAt,value
2018-09-11T00:02:23.676Z,56.60
2018-09-11T00:04:51.994Z,55.62
2018-09-11T00:07:20.363Z,57.00
2018-09-11T00:09:48.629Z,58.29
2018-09-11T00:12:16.892Z,58.02
2018-09-11T00:14:45.158Z,56.62
2018-09-11T00:17:13.489Z,56.59
2018-09-11T00:19:41.739Z,58.09
2018-09-11T00:22:09.998Z,59.90
2018-09-11T00:24:38.261Z,59.52
2018-09-11T00:27:06.540Z,58.53
2018-09-11T00:29:34.890Z,56.75
2018-09-11T00:32:03.257Z,60.17
2018-09-11T00:34:31.596Z,61.31
2018-09-11T00:36:59.969Z,61.16
2018-09-11T00:39:28.234Z,61.37
2018-09-11T00:41:56.590Z,60.60
2018-09-11T00:44:24.949Z,60.90
2018-09-11T00:46:53.286Z,59.83
2018-09-11T00:49:21.626Z,59.12
2018-09-11T00:51:50.024Z,58.41
2018-09-11T00:54:18.339Z,59.67
2018-09-11T00:56:46.814Z,58.33
2018-09-11T00:59:15.072Z,60.84
2018-09-11T01:01:43.391Z,61.20
2018-09-11T01:04:11.689Z,60.44
2018-09-11T01:06:39.954Z,60.74
2018-09-11T01:09:09.302Z,60.40
2018-09-11T01:11:37.727Z,59.94
2018-09-11T01:14:06.279Z,61.50
2018-09-11T01:16:34.734Z,60.59
2018-09-11T01:19:03.137Z,59.84
2018-09-11T01:21:31.508Z,59.19
2018-09-11T01:23:59.891Z,58.99
2018-09-11T01:26:28.307Z,59.71
2018-09-11T01:28:56.864Z,59.92
2018-09-11T01:31:25.281Z,58.16
2018-09-11T01:33:53.707Z,60.26
2018-09-11T01:36:21.957Z,61.76
2018-09-11T01:38:50.187Z,60.06
2018-09-11T01:41:18.626Z,60.15
2018-09-11T01:43:46.894Z,61.40
2018-09-11T01:46:15.171Z,60.68
2018-09-11T01:48:43.426Z,60.95
2018-09-11T01:51:11.763Z,59.75
2018-09-11T01:53:40.023Z,60.81
2018-09-11T01:56:08.282Z,60.94
2018-09-11T01:58:36.569Z,60.90
2018-09-11T02:01:04.955Z,61.32
2018-09-11T02:03:33.335Z,63.06
2018-09-11T02:06:01.748Z,62.28
2018-09-11T02:08:30.227Z,63.13
2018-09-11T02:10:58.736Z,63.89
2018-09-11T02:13:27.146Z,63.15
2018-09-11T02:15:55.470Z,64.20
2018-09-11T02:18:23.759Z,61.89
2018-09-11T02:20:52.250Z,63.31
2018-09-11T02:23:20.651Z,62.00
2018-09-11T02:25:49.083Z,64.30
2018-09-11T02:28:17.382Z,64.00
2018-09-11T02:30:45.648Z,63.17
2018-09-11T02:33:13.939Z,64.30
2018-09-11T02:35:42.212Z,64.39
2018-09-11T02:38:10.583Z,62.78
2018-09-11T02:40:38.831Z,62.78
2018-09-11T02:43:07.116Z,63.40
2018-09-11T02:45:35.339Z,61.92
2018-09-11T02:48:03.601Z,61.41
2018-09-11T02:50:31.842Z,59.83
2018-09-11T02:53:00.096Z,64.04
2018-09-11T02:55:28.359Z,60.49
2018-09-11T02:57:56.652Z,60.93
2018-09-11T03:00:31.218Z,60.41
2018-09-11T03:02:59.611Z,59.77
2018-09-11T03:05:28.115Z,58.94
2018-09-11T03:07:56.531Z,61.34
2018-09-11T03:10:24.862Z,60.73
2018-09-11T03:12:53.106Z,63.76
2018-09-11T03:15:21.371Z,63.21
2018-09-11T03:17:49.621Z,63.15
2018-09-11T03:20:17.890Z,62.06
2018-09-11T03:22:46.138Z,62.74
2018-09-11T03:25:14.429Z,62.45
2018-09-11T03:27:42.674Z,61.41
2018-09-11T03:30:10.922Z,63.06
2018-09-11T03:32:39.265Z,62.94
2018-09-11T03:35:07.603Z,62.84
2018-09-11T03:37:36.078Z,61.43
2018-09-11T03:40:04.387Z,61.79
2018-09-11T03:42:32.761Z,60.67
2018-09-11T03:45:01.091Z,61.83
2018-09-11T03:47:29.433Z,65.57
2018-09-11T03:49:57.790Z,61.97
2018-09-11T03:52:26.050Z,63.42
2018-09-11T03:54:54.410Z,62.57
2018-09-11T03:57:22.742Z,62.07
2018-09-11T03:59:51.027Z,62.85
2018-09-11T04:02:19.342Z,63.96
2018-09-11T04:04:47.702Z,65.04
2018-09-11T04:07:15.994Z,64.85
2018-09-11T04:09:44.283Z,65.60
2018-09-11T04:12:12.658Z,64.76
2018-09-11T04:14:40.986Z,66.50
2018-09-11T04:17:09.451Z,66.22
2018-09-11T04:19:37.926Z,66.19
2018-09-11T04:22:06.196Z,64.94
2018-09-11T04:24:34.773Z,65.17
2018-09-11T04:27:07.060Z,67.55
2018-09-11T04:29:35.702Z,66.12
2018-09-11T04:32:04.327Z,66.16
2018-09-11T04:34:32.846Z,66.59
2018-09-11T04:37:01.286Z,67.66
2018-09-11T04:39:29.778Z,67.62
2018-09-11T04:41:59.647Z,69.20
2018-09-11T04:44:47.173Z,68.93
2018-09-11T04:50:06.334Z,67.60
2018-09-11T04:55:51.656Z,68.32
2018-09-11T04:58:20.266Z,67.51
2018-09-11T05:00:48.630Z,65.32
2018-09-11T05:03:16.900Z,67.76
2018-09-11T05:05:45.211Z,68.19
2018-09-11T05:08:13.564Z,67.93
2018-09-11T05:10:41.913Z,68.93
2018-09-11T05:13:10.182Z,68.02
2018-09-11T05:15:38.477Z,67.90
2018-09-11T05:18:06.760Z,67.58
2018-09-11T05:20:35.107Z,66.64
2018-09-11T05:23:03.414Z,67.56
2018-09-11T05:25:31.746Z,68.03
2018-09-11T05:28:00.028Z,68.68
2018-09-11T05:30:28.648Z,67.62
2018-09-11T05:32:56.944Z,68.10
2018-09-11T05:35:25.236Z,66.38
2018-09-11T05:37:53.498Z,65.71
2018-09-11T05:40:21.793Z,68.70
2018-09-11T05:42:50.059Z,67.14
2018-09-11T05:45:18.334Z,67.25
2018-09-11T05:47:46.619Z,66.47
2018-09-11T05:50:14.919Z,66.47
2018-09-11T05:52:43.206Z,65.93
2018-09-11T05:55:11.504Z,65.20
2018-09-11T05:57:39.986Z,66.70
2018-09-11T06:00:08.439Z,65.92
2018-09-11T06:02:36.797Z,66.55
2018-09-11T06:05:05.223Z,67.61
2018-09-11T06:07:33.780Z,66.44
2018-09-11T06:10:02.091Z,65.58
2018-09-11T06:12:30.402Z,65.01
2018-09-11T06:14:58.742Z,67.26
2018-09-11T06:17:27.047Z,67.27
2018-09-11T06:19:55.326Z,66.59
2018-09-11T06:22:23.578Z,66.59
2018-09-11T06:24:51.851Z,66.75
2018-09-11T06:27:20.107Z,66.75
2018-09-11T06:29:48.395Z,64.97
2018-09-11T06:32:16.719Z,62.65
2018-09-11T06:34:44.990Z,61.91
2018-09-11T06:37:13.322Z,61.56
2018-09-11T06:39:41.742Z,58.32
2018-09-11T06:42:10.143Z,55.00
2018-09-11T06:44:45.046Z,53.90
2018-09-11T06:47:13.276Z,50.79
2018-09-11T06:49:41.580Z,49.11
2018-09-11T06:52:09.859Z,49.12
2018-09-11T06:54:38.153Z,49.56
2018-09-11T06:57:06.442Z,51.96
2018-09-11T06:59:34.741Z,54.13
2018-09-11T07:02:03.214Z,51.25
2018-09-11T07:04:31.370Z,51.29
2018-09-11T07:06:59.683Z,48.08
2018-09-11T07:09:28.018Z,47.04
2018-09-11T07:11:56.319Z,47.31
2018-09-11T07:14:24.618Z,46.40
2018-09-11T07:16:52.897Z,45.69
2018-09-11T07:19:21.187Z,45.96
2018-09-11T07:21:49.495Z,46.57
2018-09-11T07:24:17.793Z,46.47
2018-09-11T07:26:46.059Z,46.67
2018-09-11T07:29:14.490Z,47.11
2018-09-11T07:31:42.959Z,44.80
2018-09-11T07:34:11.407Z,45.56
2018-09-11T07:36:40.027Z,43.95
2018-09-11T07:39:08.954Z,44.01
2018-09-11T07:41:37.390Z,46.93
2018-09-11T07:44:05.820Z,45.40
2018-09-11T07:46:34.231Z,44.53
2018-09-11T07:49:02.593Z,43.05
2018-09-11T07:51:30.967Z,41.71
2018-09-11T07:53:59.335Z,42.17
2018-09-11T07:56:27.789Z,43.99
2018-09-11T07:58:56.202Z,42.63
2018-09-11T08:01:24.574Z,42.53
2018-09-11T08:03:52.951Z,43.29
2018-09-11T08:06:21.243Z,43.54
2018-09-11T08:08:49.575Z,41.61
2018-09-11T08:11:17.927Z,41.40
2018-09-11T08:13:46.205Z,40.78
2018-09-11T08:16:14.679Z,39.13
2018-09-11T08:18:43.003Z,39.70
2018-09-11T08:21:11.482Z,39.42
2018-09-11T08:23:39.939Z,38.26
2018-09-11T08:26:08.299Z,36.66
2018-09-11T08:28:36.837Z,38.05
2018-09-11T08:31:05.298Z,38.68
2018-09-11T08:33:33.634Z,40.69
2018-09-11T08:36:01.999Z,39.21
2018-09-11T08:38:30.420Z,38.87
2018-09-11T08:40:58.867Z,39.29
2018-09-11T08:43:27.235Z,36.68
2018-09-11T08:45:55.687Z,36.37
2018-09-11T08:48:24.147Z,35.72
2018-09-11T08:50:52.584Z,38.63
2018-09-11T08:53:21.003Z,35.92
2018-09-11T08:55:49.495Z,34.43
2018-09-11T08:58:17.911Z,33.71
2018-09-11T09:00:46.400Z,36.56
2018-09-11T09:03:14.882Z,36.60
2018-09-11T09:05:43.315Z,35.18
2018-09-11T09:08:11.696Z,36.60
2018-09-11T09:10:40.094Z,36.09
2018-09-11T09:13:08.481Z,36.59
2018-09-11T09:15:43.145Z,37.48
2018-09-11T09:18:11.415Z,35.62
2018-09-11T09:20:39.814Z,35.80
2018-09-11T09:23:08.230Z,37.13
2018-09-11T09:25:36.614Z,36.53
2018-09-11T09:28:05.084Z,37.42
2018-09-11T09:30:33.466Z,38.65
2018-09-11T09:33:01.915Z,37.08
2018-09-11T09:35:30.231Z,37.50
2018-09-11T09:37:58.630Z,37.29
2018-09-11T09:40:27.159Z,35.77
2018-09-11T09:42:55.545Z,35.54
2018-09-11T09:45:23.986Z,35.84
2018-09-11T09:47:52.405Z,36.42
2018-09-11T09:50:20.795Z,37.60
2018-09-11T09:52:49.244Z,35.92
2018-09-11T09:55:17.696Z,35.90
2018-09-11T09:57:46.098Z,33.59
2018-09-11T10:00:19.454Z,32.49
2018-09-11T10:02:47.886Z,37.02
2018-09-11T10:05:16.323Z,37.00
2018-09-11T10:07:44.752Z,35.40
2018-09-11T10:10:13.211Z,34.72
2018-09-11T10:12:41.701Z,35.92
2018-09-11T10:15:10.132Z,36.27
2018-09-11T10:17:38.623Z,36.30
2018-09-11T10:20:07.011Z,36.03
2018-09-11T10:22:35.466Z,36.09
2018-09-11T10:25:03.905Z,34.42
2018-09-11T10:27:32.287Z,34.44
2018-09-11T10:30:00.690Z,33.46
2018-09-11T10:32:29.092Z,31.62
2018-09-11T10:34:57.536Z,33.17
2018-09-11T10:37:26.049Z,33.76
2018-09-11T10:39:54.730Z,31.93
2018-09-11T10:42:23.147Z,32.28
2018-09-11T10:44:51.634Z,32.98
2018-09-11T10:47:20.063Z,33.45
2018-09-11T10:49:48.522Z,32.92
2018-09-11T10:52:16.998Z,32.94
2018-09-11T10:54:45.519Z,33.33
2018-09-11T10:57:13.969Z,33.95
2018-09-11T10:59:42.415Z,31.09
2018-09-11T11:02:10.738Z,33.08
2018-09-11T11:04:39.243Z,32.35
2018-09-11T11:07:07.637Z,34.68
2018-09-11T11:09:35.988Z,32.63
2018-09-11T11:12:04.404Z,31.95
2018-09-11T11:14:32.785Z,31.46
2018-09-11T11:17:01.143Z,31.74
2018-09-11T11:19:29.470Z,31.54
2018-09-11T11:21:57.894Z,29.84
2018-09-11T11:24:26.448Z,28.91
2018-09-11T11:26:54.971Z,29.91
2018-09-11T11:29:23.507Z,28.05
2018-09-11T11:31:51.859Z,26.84
2018-09-11T11:34:20.296Z,28.56
2018-09-11T11:36:48.809Z,28.43
2018-09-11T11:39:17.148Z,27.99
2018-09-11T11:41:45.615Z,26.96
2018-09-11T11:44:13.886Z,28.30
2018-09-11T11:46:42.247Z,29.25
2018-09-11T11:49:11.526Z,27.76
2018-09-11T11:51:39.989Z,29.40
2018-09-11T11:54:08.319Z,30.23
2018-09-11T11:56:36.714Z,28.37
2018-09-11T11:59:05.442Z,28.77
2018-09-11T12:01:33.819Z,28.29
2018-09-11T12:04:02.216Z,29.68
2018-09-11T12:06:30.573Z,29.41
2018-09-11T12:08:58.970Z,29.17
2018-09-11T12:11:27.343Z,27.90
2018-09-11T12:13:55.778Z,29.50
2018-09-11T12:16:24.191Z,31.93
2018-09-11T12:18:52.592Z,31.31
2018-09-11T12:21:20.990Z,34.50
2018-09-11T12:23:49.372Z,35.70
2018-09-11T12:26:18.059Z,35.98
2018-09-11T12:28:46.471Z,35.35
2018-09-11T12:31:14.942Z,34.94
2018-09-11T12:33:43.338Z,34.81
2018-09-11T12:36:11.865Z,35.06
2018-09-11T12:38:40.397Z,35.24
2018-09-11T12:41:08.768Z,34.19
2018-09-11T12:43:37.181Z,34.53
2018-09-11T12:46:05.772Z,33.74
2018-09-11T12:48:34.097Z,34.58
2018-09-11T12:51:02.415Z,35.01
2018-09-11T12:53:30.844Z,35.06
2018-09-11T12:55:59.195Z,35.06
2018-09-11T12:58:27.563Z,34.16
2018-09-11T13:00:55.984Z,33.79
2018-09-11T13:03:24.423Z,33.11
2018-09-11T13:05:53.723Z,33.90
2018-09-11T13:08:22.230Z,34.25
2018-09-11T13:10:50.706Z,33.75
2018-09-11T13:13:19.030Z,34.09
2018-09-11T13:15:47.434Z,31.34
2018-09-11T13:18:15.836Z,31.44
2018-09-11T13:20:44.200Z,31.87
2018-09-11T13:23:12.599Z,31.70
2018-09-11T13:25:40.970Z,30.97
2018-09-11T13:28:09.478Z,33.05
2018-09-11T13:30:37.904Z,31.20
2018-09-11T13:33:06.552Z,33.13
2018-09-11T13:35:35.123Z,31.20
2018-09-11T13:38:03.651Z,31.67
2018-09-11T13:40:32.060Z,34.00
2018-09-11T13:43:00.433Z,33.60
2018-09-11T13:45:28.942Z,34.93
2018-09-11T13:47:57.399Z,33.07
2018-09-11T13:50:25.909Z,32.57
2018-09-11T13:52:54.299Z,32.69
2018-09-11T13:55:22.718Z,33.07
2018-09-11T13:57:51.838Z,34.19
2018-09-11T14:00:20.255Z,33.97
2018-09-11T14:02:48.667Z,33.15
2018-09-11T14:05:17.028Z,33.44
2018-09-11T14:07:45.379Z,33.05
2018-09-11T14:10:14.143Z,33.47
2018-09-11T14:12:42.775Z,31.94
2018-09-11T14:15:11.324Z,31.56
2018-09-11T14:17:39.731Z,31.86
2018-09-11T14:20:08.203Z,32.18
2018-09-11T14:22:36.547Z,32.47
2018-09-11T14:25:05.178Z,32.00
2018-09-11T14:27:33.609Z,32.72
2018-09-11T14:30:02.006Z,32.14
2018-09-11T14:32:30.461Z,31.98
2018-09-11T14:34:58.875Z,32.96
2018-09-11T14:37:27.274Z,30.71
2018-09-11T14:39:55.634Z,30.03
2018-09-11T14:42:24.015Z,31.29
2018-09-11T14:44:52.400Z,30.98
2018-09-11T14:47:20.734Z,31.49
2018-09-11T14:49:49.111Z,30.77
2018-09-11T14:52:17.544Z,30.35
2018-09-11T14:54:45.932Z,30.51
2018-09-11T14:57:14.324Z,29.98
2018-09-11T14:59:42.690Z,29.66
2018-09-11T15:02:11.046Z,29.40
2018-09-11T15:04:39.426Z,29.34
2018-09-11T15:07:07.843Z,29.46
2018-09-11T15:09:36.289Z,28.84
2018-09-11T15:12:04.693Z,28.58
2018-09-11T15:14:33.104Z,29.16
2018-09-11T15:17:01.520Z,28.98
2018-09-11T15:19:29.931Z,29.02
2018-09-11T15:21:58.377Z,29.12
2018-09-11T15:24:26.768Z,29.83
2018-09-11T15:26:55.140Z,30.23
2018-09-11T15:29:23.644Z,29.26
2018-09-11T15:31:51.933Z,30.29
2018-09-11T15:34:20.335Z,29.85
2018-09-11T15:36:48.631Z,29.92
2018-09-11T15:39:16.922Z,30.01
2018-09-11T15:41:45.214Z,30.62
2018-09-11T15:44:13.567Z,30.46
2018-09-11T15:46:41.859Z,31.29
2018-09-11T15:49:10.274Z,30.57
2018-09-11T15:51:38.683Z,30.85
2018-09-11T15:54:07.010Z,32.05
2018-09-11T15:56:35.550Z,30.45
2018-09-11T15:59:04.228Z,30.12
2018-09-11T16:01:32.649Z,31.40
2018-09-11T16:04:01.006Z,31.57
2018-09-11T16:06:29.389Z,30.76
2018-09-11T16:08:57.767Z,31.17
2018-09-11T16:11:26.186Z,31.65
2018-09-11T16:13:54.548Z,30.78
2018-09-11T16:16:23.000Z,31.35
2018-09-11T16:18:51.422Z,31.27
2018-09-11T16:21:19.824Z,30.77
2018-09-11T16:23:48.239Z,30.76
2018-09-11T16:26:16.658Z,32.48
2018-09-11T16:28:45.059Z,31.63
2018-09-11T16:31:13.538Z,31.01
2018-09-11T16:33:41.966Z,31.95
2018-09-11T16:36:10.397Z,32.75
2018-09-11T16:38:38.728Z,32.67
2018-09-11T16:41:07.150Z,32.08
2018-09-11T16:43:35.546Z,32.22
2018-09-11T16:46:03.978Z,32.44
2018-09-11T16:48:33.379Z,32.06
2018-09-11T16:51:01.790Z,32.01
2018-09-11T16:53:30.256Z,32.59
2018-09-11T16:55:58.670Z,32.81
2018-09-11T16:58:27.177Z,31.13
2018-09-11T17:00:55.584Z,33.74
2018-09-11T17:03:24.003Z,32.72
2018-09-11T17:05:52.422Z,33.48
2018-09-11T17:08:20.890Z,32.24
2018-09-11T17:10:49.270Z,33.40
2018-09-11T17:13:17.696Z,32.18
2018-09-11T17:15:46.099Z,33.45
2018-09-11T17:18:14.536Z,34.25
2018-09-11T17:20:42.948Z,34.13
2018-09-11T17:23:11.398Z,34.77
2018-09-11T17:25:44.991Z,33.34
2018-09-11T17:28:13.672Z,33.98
2018-09-11T17:30:41.990Z,34.46
2018-09-11T17:33:10.320Z,35.71
2018-09-11T17:35:38.679Z,35.22
2018-09-11T17:38:07.956Z,35.69
2018-09-11T17:40:41.757Z,35.61
2018-09-11T17:43:10.220Z,35.92
2018-09-11T17:45:38.695Z,36.58
2018-09-11T17:48:07.216Z,36.98
2018-09-11T17:50:35.695Z,36.56
2018-09-11T17:53:06.718Z,37.87
2018-09-11T17:55:43.188Z,37.39
2018-09-11T17:58:11.717Z,39.33
2018-09-11T18:00:41.828Z,38.93
2018-09-11T18:03:10.260Z,40.34
2018-09-11T18:05:38.766Z,40.34
2018-09-11T18:08:07.377Z,40.33
2018-09-11T18:10:35.858Z,40.49
2018-09-11T18:13:04.603Z,40.13
2018-09-11T18:15:33.134Z,41.16
2018-09-11T18:18:01.579Z,41.50
2018-09-11T18:20:29.958Z,40.97
2018-09-11T18:22:58.342Z,42.85
2018-09-11T18:25:26.945Z,42.55
2018-09-11T18:28:01.970Z,42.52
2018-09-11T18:30:30.511Z,42.29
2018-09-11T18:32:58.907Z,43.17
2018-09-11T18:35:27.475Z,43.52
2018-09-11T18:37:55.846Z,44.32
2018-09-11T18:40:27.196Z,44.32
2018-09-11T18:42:55.575Z,45.12
2018-09-11T18:45:24.303Z,44.44
2018-09-11T18:47:52.668Z,45.25
2018-09-11T18:50:21.396Z,45.46
2018-09-11T18:52:49.930Z,44.78
2018-09-11T18:55:18.391Z,47.01
2018-09-11T18:57:46.928Z,45.17
2018-09-11T19:00:15.189Z,46.46
2018-09-11T19:02:43.575Z,45.96
2018-09-11T19:05:12.029Z,45.33
2018-09-11T19:07:40.523Z,46.48
2018-09-11T19:10:09.707Z,45.39
2018-09-11T19:12:38.151Z,46.16
2018-09-11T19:15:06.577Z,46.22
2018-09-11T19:17:35.119Z,46.71
2018-09-11T19:20:04.033Z,46.88
2018-09-11T19:22:32.618Z,46.30
2018-09-11T19:25:01.146Z,45.64
2018-09-11T19:27:29.694Z,44.69
2018-09-11T19:29:58.571Z,45.50
2018-09-11T19:32:27.159Z,45.82
2018-09-11T19:34:55.640Z,44.47
2018-09-11T19:37:24.287Z,44.74
2018-09-11T19:39:52.744Z,44.11
2018-09-11T19:42:21.370Z,43.13
2018-09-11T19:44:49.647Z,42.93
2018-09-11T19:47:18.042Z,42.47
2018-09-11T19:49:46.380Z,43.35
2018-09-11T19:52:14.778Z,42.51
2018-09-11T19:54:43.109Z,43.10
2018-09-11T19:57:11.592Z,42.83
2018-09-11T19:59:39.974Z,41.89
2018-09-11T20:02:08.324Z,42.01
2018-09-11T20:04:36.704Z,43.15
2018-09-11T20:07:05.060Z,42.85
2018-09-11T20:09:33.479Z,43.38
2018-09-11T20:12:01.846Z,42.98
2018-09-11T20:14:30.233Z,43.49
2018-09-11T20:16:58.599Z,42.45
2018-09-11T20:19:26.973Z,42.21
2018-09-11T20:21:55.422Z,42.62
2018-09-11T20:24:23.744Z,43.08
2018-09-11T20:26:52.135Z,42.26
2018-09-11T20:29:20.599Z,42.33
2018-09-11T20:31:49.018Z,42.08
2018-09-11T20:34:17.459Z,42.04
2018-09-11T20:36:45.880Z,41.72
2018-09-11T20:39:14.301Z,42.45
2018-09-11T20:41:42.739Z,42.92
2018-09-11T20:44:11.524Z,43.16
2018-09-11T20:46:40.086Z,43.52
2018-09-11T20:49:08.552Z,43.03
2018-09-11T20:51:36.946Z,43.04
2018-09-11T20:54:05.359Z,43.02
2018-09-11T20:56:33.756Z,43.97
2018-09-11T20:59:02.091Z,44.25
2018-09-11T21:01:30.495Z,43.02
2018-09-11T21:03:58.888Z,42.90
2018-09-11T21:06:27.256Z,42.23
2018-09-11T21:08:55.558Z,43.58
2018-09-11T21:11:24.014Z,43.05
2018-09-11T21:13:52.410Z,43.72
2018-09-11T21:16:20.804Z,44.26
2018-09-11T21:18:49.157Z,44.10
2018-09-11T21:21:17.638Z,43.40
2018-09-11T21:23:45.975Z,43.02
2018-09-11T21:26:14.378Z,43.81
2018-09-11T21:28:42.677Z,42.66
2018-09-11T21:31:11.064Z,43.38
2018-09-11T21:33:39.427Z,42.60
2018-09-11T21:36:07.815Z,42.85
2018-09-11T21:38:36.231Z,43.02
2018-09-11T21:41:04.627Z,44.48
2018-09-11T21:43:33.025Z,44.22
2018-09-11T21:46:01.423Z,44.40
2018-09-11T21:48:29.835Z,44.44
2018-09-11T21:50:58.220Z,43.60
2018-09-11T21:53:26.652Z,44.25
2018-09-11T21:55:55.042Z,43.88
2018-09-11T21:58:23.454Z,42.62
2018-09-11T22:00:57.935Z,42.80
2018-09-11T22:03:26.300Z,43.75
2018-09-11T22:05:54.764Z,43.17
2018-09-11T22:08:23.198Z,43.74
2018-09-11T22:10:51.614Z,44.79
2018-09-11T22:13:20.002Z,45.00
2018-09-11T22:15:48.370Z,44.76
2018-09-11T22:18:16.728Z,44.24
2018-09-11T22:20:45.123Z,44.68
2018-09-11T22:23:13.576Z,46.34
2018-09-11T22:25:41.935Z,47.15
2018-09-11T22:28:10.370Z,44.43
2018-09-11T22:30:38.764Z,45.54
2018-09-11T22:33:07.124Z,44.66
2018-09-11T22:35:35.511Z,44.76
2018-09-11T22:38:03.907Z,44.47
2018-09-11T22:40:32.268Z,44.84
2018-09-11T22:43:00.661Z,44.01
2018-09-11T22:45:29.767Z,44.48
2018-09-11T22:47:58.146Z,44.53
2018-09-11T22:50:26.672Z,45.19
2018-09-11T22:52:55.064Z,46.20
2018-09-11T22:55:23.487Z,47.15
2018-09-11T22:57:51.831Z,45.32
2018-09-11T23:00:20.218Z,44.62
2018-09-11T23:02:48.627Z,44.46
2018-09-11T23:05:16.985Z,45.13
2018-09-11T23:07:45.369Z,45.60
2018-09-11T23:10:13.709Z,46.21
2018-09-11T23:12:42.067Z,44.99
2018-09-11T23:15:10.416Z,44.88
2018-09-11T23:17:38.758Z,46.32
2018-09-11T23:20:07.030Z,47.65
2018-09-11T23:22:35.378Z,46.83
2018-09-11T23:25:03.672Z,47.40
2018-09-11T23:27:32.046Z,47.36
2018-09-11T23:30:00.416Z,46.94
2018-09-11T23:32:28.761Z,46.88
2018-09-11T23:34:57.112Z,45.69
2018-09-11T23:37:25.493Z,45.19
2018-09-11T23:39:53.784Z,46.55
2018-09-11T23:42:22.125Z,47.06
2018-09-11T23:44:50.491Z,46.16
2018-09-11T23:47:18.898Z,47.12
2018-09-11T23:49:47.294Z,47.61
2018-09-11T23:52:15.657Z,47.69
2018-09-11T23:54:44.054Z,47.61
2018-09-11T23:57:12.396Z,47.73
2018-09-11T23:59:40.766Z,47.43
